Time;durP1;ratioP1;P1;durP2;ratioP2;P2;SDS_P1;SDS_P2;PMS_P1;PMS_P2;Temp;Humidity;BMP_temperature;BMP_pressure;BME280_temperature;BME280_humidity;BME280_pressure;Samples;Min_cycle;Max_cycle;Signal;HPM_P1;HPM_P2
2022/08/30 00:02:12;;;;;;;;;;;;;;;25.35;56.57;100024.19;4370798;32;39631;-80
2022/08/30 00:04:39;;;;;;;;;;;;;;;25.22;57.03;100023.81;4369080;32;40996;-81
2022/08/30 00:07:06;;;;;;;;;;;;;;;25.05;57.83;100023.63;4368115;32;38444;-81
2022/08/30 00:09:34;;;;;;;;;;;;;;;25.11;57.46;100025.16;4370732;32;36414;-82
2022/08/30 00:12:03;;;;;;;;;;;;;;;25.18;57.18;100024.03;4381782;32;38551;-80
2022/08/30 00:14:30;;;;;;;;;;;;;;;25.15;57.46;100021.50;4366590;32;38397;-82
2022/08/30 00:16:57;;;;;;;;;;;;;;;24.99;57.99;100022.09;4384681;32;38430;-82
2022/08/30 00:19:25;;;;;;;;;;;;;;;25.13;57.50;100028.62;4386051;32;37576;-83
2022/08/30 00:21:52;;;;;;;;;;;;;;;25.03;57.67;100034.28;4378110;32;37731;-80
2022/08/30 00:24:19;;;;;;;;;;;;;;;25.14;57.39;100019.75;4384821;32;38343;-81
2022/08/30 00:26:47;;;;;;;;;;;;;;;25.01;57.85;100024.66;4384606;32;38458;-82
2022/08/30 00:29:14;;;;;;;;;;;;;;;25.05;57.64;100026.28;4385993;32;36358;-82
2022/08/30 00:31:41;;;;;;;;;;;;;;;24.89;58.07;100020.75;4384493;32;37644;-80
2022/08/30 00:34:08;;;;;;;;;;;;;;;25.04;57.67;100025.41;4386427;32;38200;-80
2022/08/30 00:36:36;;;;;;;;;;;;;;;25.03;57.82;100022.81;4384410;32;39312;-80
2022/08/30 00:39:04;;;;;;;;;;;;;;;24.91;58.10;100025.97;4387049;32;37896;-81
2022/08/30 00:41:33;;;;;;;;;;;;;;;24.93;57.87;100027.63;4385485;32;37652;-83
2022/08/30 00:44:00;;;;;;;;;;;;;;;25.01;57.83;100030.81;4383221;32;37889;-80
2022/08/30 00:46:27;;;;;;;;;;;;;;;24.96;57.97;100030.16;4382466;32;38686;-82
2022/08/30 00:48:55;;;;;;;;;;;;;;;24.99;57.77;100031.81;4384067;32;37916;-81
2022/08/30 00:51:22;;;;;;;;;;;;;;;24.94;57.97;100033.78;4374806;32;38481;-81
2022/08/30 00:53:53;;;;;;;;;;;;;;;25.00;57.84;100029.09;4384598;32;37538;-82
2022/08/30 00:56:21;;;;;;;;;;;;;;;24.96;58.02;100032.81;4383228;32;38321;-81
2022/08/30 00:58:49;;;;;;;;;;;;;;;24.96;57.95;100035.44;4384280;32;36663;-81
2022/08/30 01:01:16;;;;;;;;;;;;;;;24.88;58.12;100026.94;4383176;32;38709;-80
2022/08/30 01:03:44;;;;;;;;;;;;;;;24.90;58.18;100027.75;4382793;32;39733;-83
2022/08/30 01:06:14;;;;;;;;;;;;;;;24.84;58.30;100030.66;4385946;32;38409;-80
2022/08/30 01:08:41;;;;;;;;;;;;;;;24.92;58.22;100025.91;4369510;32;36881;-82
2022/08/30 01:11:10;;;;;;;;;;;;;;;24.87;58.44;100022.56;4369562;32;39069;-82
2022/08/30 01:13:37;;;;;;;;;;;;;;;24.92;58.27;100023.28;4373537;32;37792;-83
2022/08/30 01:16:05;;;;;;;;;;;;;;;25.02;58.17;100026.41;4382758;32;39456;-82
2022/08/30 01:18:34;;;;;;;;;;;;;;;25.05;58.07;100016.53;4385715;32;36720;-82
2022/08/30 01:21:28;;;;;;;;;;;;;;;24.93;58.58;100017.03;4382774;32;39211;-82
2022/08/30 01:23:57;;;;;;;;;;;;;;;25.05;57.94;100016.53;4371070;32;38971;-83
2022/08/30 01:26:25;;;;;;;;;;;;;;;24.97;58.33;100023.94;4372017;32;39561;-82
2022/08/30 01:28:54;;;;;;;;;;;;;;;24.92;58.48;100028.56;4373897;32;36576;-81
2022/08/30 01:31:22;;;;;;;;;;;;;;;24.87;58.46;100017.28;4382898;32;37774;-80
2022/08/30 01:33:49;;;;;;;;;;;;;;;24.88;58.24;100018.12;4383503;32;39036;-80
2022/08/30 01:36:17;;;;;;;;;;;;;;;24.78;58.64;100021.16;4382773;32;39670;-82
2022/08/30 01:38:46;;;;;;;;;;;;;;;24.80;58.36;100015.81;4384351;32;37883;-81
2022/08/30 01:41:18;;;;;;;;;;;;;;;24.81;58.44;100015.72;4377610;32;37714;-81
2022/08/30 01:43:46;;;;;;;;;;;;;;;24.83;58.47;100018.34;4374983;32;38031;-82
2022/08/30 01:46:14;;;;;;;;;;;;;;;24.76;58.50;100019.47;4369503;32;37808;-82
2022/08/30 01:48:41;;;;;;;;;;;;;;;24.79;58.23;100014.06;4371417;32;38140;-83
2022/08/30 01:51:21;;;;;;;;;;;;;;;24.79;58.29;100020.25;4383694;32;38269;-83
2022/08/30 01:53:49;;;;;;;;;;;;;;;24.76;58.45;100019.47;4384109;32;38445;-80
2022/08/30 01:56:17;;;;;;;;;;;;;;;24.71;58.30;100005.56;4384423;32;39326;-80
2022/08/30 01:58:44;;;;;;;;;;;;;;;24.47;58.85;100013.53;4384358;32;37767;-81
2022/08/30 02:01:12;;;;;;;;;;;;;;;24.58;58.56;100006.06;4378055;32;39142;-82
2022/08/30 02:03:41;;;;;;;;;;;;;;;24.58;58.46;100006.06;4382553;32;38822;-79
2022/08/30 02:06:10;;;;;;;;;;;;;;;24.63;58.26;100007.66;4385952;32;38439;-80
2022/08/30 02:08:39;;;;;;;;;;;;;;;24.47;58.75;100008.25;4383916;32;37568;-82
2022/08/30 02:11:06;;;;;;;;;;;;;;;24.55;58.30;100011.47;4382384;32;39639;-82
2022/08/30 02:13:36;;;;;;;;;;;;;;;24.55;58.33;100006.16;4378087;32;37880;-83
2022/08/30 02:16:04;;;;;;;;;;;;;;;24.48;58.38;100004.69;4383851;32;38390;-81
2022/08/30 02:18:33;;;;;;;;;;;;;;;24.47;58.34;100002.94;4383909;32;38011;-84
2022/08/30 02:21:01;;;;;;;;;;;;;;;24.51;58.15;100003.72;4384125;32;38053;-82
2022/08/30 02:23:28;;;;;;;;;;;;;;;24.53;57.91;99996.56;4383705;32;38058;-81
2022/08/30 02:25:55;;;;;;;;;;;;;;;24.46;58.18;100006.53;4383924;32;39224;-82
2022/08/30 02:28:24;;;;;;;;;;;;;;;24.39;58.15;99998.84;4384003;32;37853;-82
2022/08/30 02:30:51;;;;;;;;;;;;;;;24.26;58.80;100009.03;4384394;32;38025;-81
2022/08/30 02:33:19;;;;;;;;;;;;;;;24.26;58.72;100003.75;4382375;32;37964;-81
2022/08/30 02:35:46;;;;;;;;;;;;;;;24.35;58.44;100003.41;4383953;32;38797;-81
2022/08/30 02:38:13;;;;;;;;;;;;;;;24.29;58.52;100014.22;4383740;32;36976;-82
2022/08/30 02:40:41;;;;;;;;;;;;;;;24.27;58.70;100016.06;4383945;32;38387;-82
2022/08/30 02:43:08;;;;;;;;;;;;;;;24.35;58.22;100014.00;4383972;32;37898;-81
2022/08/30 02:45:35;;;;;;;;;;;;;;;24.27;58.33;100010.75;4383528;32;38797;-82
2022/08/30 02:48:03;;;;;;;;;;;;;;;24.30;58.10;100016.78;4385698;32;36964;-82
2022/08/30 02:50:30;;;;;;;;;;;;;;;24.22;58.43;100012.69;4376018;32;37929;-82
2022/08/30 02:52:58;;;;;;;;;;;;;;;24.22;58.28;100007.41;4383684;32;38587;-81
2022/08/30 02:55:26;;;;;;;;;;;;;;;24.21;58.34;100011.84;4383457;32;39593;-82
2022/08/30 02:57:53;;;;;;;;;;;;;;;24.08;58.75;100011.44;4385439;32;36589;-83
2022/08/30 03:00:21;;;;;;;;;;;;;;;24.29;58.22;100008.94;4385144;32;37877;-82
2022/08/30 03:02:48;;;;;;;;;;;;;;;24.21;58.51;100003.91;4383705;32;37846;-82
2022/08/30 03:05:16;;;;;;;;;;;;;;;24.04;58.94;100009.84;4383285;32;39428;-82
2022/08/30 03:07:44;;;;;;;;;;;;;;;24.22;58.37;100007.41;4384022;32;36703;-81
2022/08/30 03:10:12;;;;;;;;;;;;;;;24.13;58.56;100008.62;4385300;32;37776;-83
2022/08/30 03:12:40;;;;;;;;;;;;;;;24.11;58.54;100003.37;4383236;32;37534;-82
2022/08/30 03:15:08;;;;;;;;;;;;;;;24.03;58.92;100005.47;4381641;32;38656;-84
2022/08/30 03:17:36;;;;;;;;;;;;;;;24.22;58.00;100012.69;4383721;32;36723;-84
2022/08/30 03:20:04;;;;;;;;;;;;;;;24.18;57.97;100011.97;4358852;32;36985;-83
2022/08/30 03:22:31;;;;;;;;;;;;;;;24.21;57.96;100016.28;4366587;32;39287;-82
2022/08/30 03:25:00;;;;;;;;;;;;;;;23.89;59.02;100020.97;4377726;32;38827;-82
2022/08/30 03:27:27;;;;;;;;;;;;;;;23.98;58.55;100023.28;4382484;32;37336;-83
2022/08/30 03:29:55;;;;;;;;;;;;;;;23.86;58.62;100021.06;4377053;32;38319;-81
2022/08/30 03:32:22;;;;;;;;;;;;;;;23.90;58.62;100025.34;4382838;32;38137;-83
2022/08/30 03:34:50;;;;;;;;;;;;;;;23.80;58.92;100026.56;4386915;32;38059;-81
2022/08/30 03:37:17;;;;;;;;;;;;;;;23.89;58.75;100042.09;4384272;32;37139;-82
2022/08/30 03:39:44;;;;;;;;;;;;;;;23.73;59.20;100035.62;4379437;32;37891;-81
2022/08/30 03:42:12;;;;;;;;;;;;;;;23.83;58.89;100037.03;4381862;32;38057;-82
2022/08/30 03:44:39;;;;;;;;;;;;;;;23.81;58.77;100039.75;4380838;32;37804;-82
2022/08/30 03:47:07;;;;;;;;;;;;;;;23.78;59.07;100045.16;4382702;32;37751;-82
2022/08/30 03:49:34;;;;;;;;;;;;;;;23.89;58.49;100044.75;4387055;32;38996;-83
2022/08/30 03:52:02;;;;;;;;;;;;;;;23.74;59.08;100047.94;4385065;32;38238;-81
2022/08/30 03:54:30;;;;;;;;;;;;;;;23.87;58.69;100043.97;4384677;32;38605;-81
2022/08/30 03:56:57;;;;;;;;;;;;;;;23.84;58.57;100046.72;4384354;32;35859;-82
2022/08/30 03:59:24;;;;;;;;;;;;;;;23.71;59.28;100042.75;4375081;32;37590;-81
2022/08/30 04:01:52;;;;;;;;;;;;;;;23.91;58.24;100050.87;4370031;32;38212;-82
2022/08/30 04:04:19;;;;;;;;;;;;;;;23.87;58.42;100042.19;4382636;32;39782;-81
2022/08/30 04:06:47;;;;;;;;;;;;;;;24.02;58.23;100047.81;4384973;32;37050;-82
2022/08/30 04:09:15;;;;;;;;;;;;;;;23.92;58.08;100047.28;4384132;32;39307;-81
2022/08/30 04:11:42;;;;;;;;;;;;;;;23.87;58.39;100049.25;4387522;32;38887;-82
2022/08/30 04:14:09;;;;;;;;;;;;;;;23.85;58.25;100049.28;4384529;32;38291;-82
2022/08/30 04:16:36;;;;;;;;;;;;;;;23.88;58.44;100061.53;4385208;32;37097;-82
2022/08/30 04:19:04;;;;;;;;;;;;;;;23.79;58.54;100069.78;4388439;32;37957;-81
2022/08/30 04:21:31;;;;;;;;;;;;;;;23.77;58.76;100068.97;4384634;32;37779;-82
2022/08/30 04:24:01;;;;;;;;;;;;;;;23.85;58.51;100072.22;4383544;32;38446;-83
2022/08/30 04:26:28;;;;;;;;;;;;;;;23.72;58.99;100077.06;4387133;32;36604;-82
2022/08/30 04:28:55;;;;;;;;;;;;;;;23.79;58.87;100083.00;4385970;32;37210;-82
2022/08/30 04:31:23;;;;;;;;;;;;;;;23.80;58.63;100090.00;4384833;32;37960;-82
2022/08/30 04:33:50;;;;;;;;;;;;;;;24.00;58.49;100092.84;4382888;32;39182;-84
2022/08/30 04:36:17;;;;;;;;;;;;;;;23.99;58.46;100096.38;4386917;32;36932;-83
2022/08/30 04:38:45;;;;;;;;;;;;;;;23.96;58.42;100096.50;4385073;32;38597;-83
2022/08/30 04:41:15;;;;;;;;;;;;;;;23.89;59.00;100102.91;4383171;32;38662;-84
2022/08/30 04:43:43;;;;;;;;;;;;;;;23.94;58.90;100108.94;4386301;32;38337;-83
2022/08/30 04:46:12;;;;;;;;;;;;;;;23.82;59.23;100112.00;4383194;32;37205;-83
2022/08/30 04:48:40;;;;;;;;;;;;;;;23.86;59.33;100116.25;4383407;32;38097;-83
2022/08/30 04:51:09;;;;;;;;;;;;;;;23.99;59.30;100106.97;4369233;32;37773;-84
2022/08/30 04:53:36;;;;;;;;;;;;;;;23.99;59.46;100114.91;4383134;32;40346;-83
2022/08/30 04:56:10;;;;;;;;;;;;;;;24.00;59.47;100121.94;4383647;32;37777;-83
2022/08/30 04:58:37;;;;;;;;;;;;;;;24.08;59.29;100116.38;4383766;32;37953;-82
2022/08/30 05:01:10;;;;;;;;;;;;;;;24.06;59.24;100116.44;4384766;32;39172;-83
2022/08/30 05:03:38;;;;;;;;;;;;;;;24.03;59.55;100126.28;4383864;32;37974;-83
2022/08/30 05:06:06;;;;;;;;;;;;;;;24.19;59.48;100119.50;4385971;32;36495;-83
2022/08/30 05:08:33;;;;;;;;;;;;;;;24.22;59.68;100118.53;4383966;32;39066;-83
2022/08/30 05:11:02;;;;;;;;;;;;;;;24.23;59.58;100125.56;4385421;32;37870;-83
2022/08/30 05:13:30;;;;;;;;;;;;;;;24.30;58.71;100132.34;4383076;32;39216;-84
2022/08/30 05:16:04;;;;;;;;;;;;;;;24.29;59.08;100135.91;4384545;32;36349;-82
2022/08/30 05:18:32;;;;;;;;;;;;;;;24.43;58.18;100133.66;4385427;32;38306;-83
2022/08/30 05:21:16;;;;;;;;;;;;;;;24.41;58.46;100130.22;4384044;32;38583;-83
2022/08/30 05:23:44;;;;;;;;;;;;;;;24.34;58.87;100131.31;4382766;32;39388;-82
2022/08/30 05:26:12;;;;;;;;;;;;;;;24.40;58.74;100128.44;4381721;32;36714;-82
2022/08/30 05:28:39;;;;;;;;;;;;;;;24.48;58.56;100129.06;4385811;32;38885;-82
2022/08/30 05:31:17;;;;;;;;;;;;;;;24.51;58.87;100130.75;4383695;32;38881;-82
2022/08/30 05:33:45;;;;;;;;;;;;;;;24.58;58.78;100130.47;4384242;32;39368;-82
2022/08/30 05:36:13;;;;;;;;;;;;;;;24.55;59.21;100122.63;4382762;32;37306;-81
2022/08/30 05:38:41;;;;;;;;;;;;;;;24.66;59.00;100134.59;4382216;32;37732;-82
2022/08/30 05:41:08;;;;;;;;;;;;;;;24.66;58.41;100129.31;4381464;32;37724;-82
2022/08/30 05:43:37;;;;;;;;;;;;;;;24.89;57.89;100129.31;4382797;32;39483;-82
2022/08/30 05:46:09;;;;;;;;;;;;;;;24.91;57.86;100130.09;4383539;32;36685;-82
2022/08/30 05:48:37;;;;;;;;;;;;;;;24.75;58.97;100124.53;4381780;32;38409;-82
2022/08/30 05:51:10;;;;;;;;;;;;;;;24.68;58.88;100132.78;4387009;32;37911;-82
2022/08/30 05:53:37;;;;;;;;;;;;;;;24.95;58.16;100129.09;4386068;32;38590;-81
2022/08/30 05:56:07;;;;;;;;;;;;;;;24.70;60.00;100138.87;4384306;32;36678;-80
2022/08/30 05:58:35;;;;;;;;;;;;;;;25.06;58.48;100133.97;4384374;32;38423;-84
2022/08/30 06:01:02;;;;;;;;;;;;;;;25.11;58.11;100136.41;4376975;32;38268;-84
2022/08/30 06:03:31;;;;;;;;;;;;;;;25.12;58.15;100139.06;4378665;32;38105;-85
2022/08/30 06:05:59;;;;;;;;;;;;;;;25.25;58.27;100139.44;4367255;32;36542;-85
2022/08/30 06:08:26;;;;;;;;;;;;;;;25.42;57.82;100131.66;4354582;32;38784;-81
2022/08/30 06:10:54;;;;;;;;;;;;;;;25.47;57.14;100142.09;4362522;32;37941;-82
2022/08/30 06:13:22;;;;;;;;;;;;;;;25.48;56.79;100135.84;4383268;32;39495;-79
2022/08/30 06:15:51;;;;;;;;;;;;;;;25.57;56.34;100139.91;4374471;32;36798;-80
2022/08/30 06:18:19;;;;;;;;;;;;;;;25.59;55.97;100143.34;4367821;32;37639;-83
2022/08/30 06:20:54;;;;;;;;;;;;;;;25.58;55.47;100146.94;4381182;32;38155;-82
2022/08/30 06:23:22;;;;;;;;;;;;;;;25.85;54.82;100150.28;4385435;32;39394;-82
2022/08/30 06:25:50;;;;;;;;;;;;;;;25.89;53.71;100146.56;4383894;32;36791;-83
2022/08/30 06:28:18;;;;;;;;;;;;;;;25.98;52.42;100146.19;4374149;32;39342;-82
2022/08/30 06:30:46;;;;;;;;;;;;;;;26.10;50.86;100144.78;4383431;32;37806;-83
2022/08/30 06:33:13;;;;;;;;;;;;;;;26.21;49.14;100147.84;4383937;32;38831;-84
2022/08/30 06:35:40;;;;;;;;;;;;;;;26.12;46.69;100143.78;4384003;32;37511;-82
2022/08/30 06:38:26;;;;;;;;;;;;;;;26.28;47.62;100149.28;4383038;32;38434;-84
2022/08/30 06:40:54;;;;;;;;;;;;;;;26.18;46.45;100142.66;4383520;32;39718;-82
2022/08/30 06:43:21;;;;;;;;;;;;;;;26.30;47.12;100146.56;4381352;32;38031;-83
2022/08/30 06:45:49;;;;;;;;;;;;;;;26.24;47.88;100147.69;4383684;32;36650;-83
2022/08/30 06:48:17;;;;;;;;;;;;;;;26.34;46.08;100151.66;4359890;32;38844;-84
2022/08/30 06:50:44;;;;;;;;;;;;;;;26.54;46.86;100144.66;4369227;32;36177;-83
2022/08/30 06:53:12;;;;;;;;;;;;;;;26.85;46.39;100136.13;4382579;32;38815;-83
2022/08/30 06:55:40;;;;;;;;;;;;;;;27.21;45.41;100141.53;4379077;32;36995;-83
2022/08/30 06:58:08;;;;;;;;;;;;;;;27.28;44.03;100145.66;4375526;32;37877;-82
2022/08/30 07:00:36;;;;;;;;;;;;;;;27.20;44.56;100149.59;4383484;32;37970;-82
2022/08/30 07:03:04;;;;;;;;;;;;;;;27.39;43.44;100157.56;4383756;32;39195;-81
2022/08/30 07:05:31;;;;;;;;;;;;;;;27.49;43.03;100153.50;4383031;32;36360;-84
2022/08/30 07:07:58;;;;;;;;;;;;;;;27.63;44.31;100159.00;4355924;32;38700;-82
2022/08/30 07:10:26;;;;;;;;;;;;;;;27.68;43.66;100164.97;4338881;33;37744;-83
2022/08/30 07:12:53;;;;;;;;;;;;;;;28.18;42.13;100150.94;4338043;33;38444;-82
2022/08/30 07:15:21;;;;;;;;;;;;;;;28.56;42.10;100166.72;4349536;32;36554;-84
2022/08/30 07:20:36;;;;;;;;;;;;;;;28.58;41.80;100170.16;4324362;33;37466;-82
2022/08/30 07:23:07;;;;;;;;;;;;;;;28.71;39.86;100165.03;4317179;32;38098;-82
2022/08/30 07:25:38;;;;;;;;;;;;;;;28.44;40.35;100167.38;4367823;32;36412;-84
2022/08/30 07:28:06;;;;;;;;;;;;;;;28.55;41.37;100165.00;4368403;32;38020;-84
2022/08/30 07:30:34;;;;;;;;;;;;;;;28.59;41.12;100171.91;4380324;32;38983;-83
2022/08/30 07:33:01;;;;;;;;;;;;;;;28.52;41.18;100175.81;4384806;32;38626;-83
2022/08/30 07:35:30;;;;;;;;;;;;;;;28.43;40.62;100170.97;4384785;32;36984;-82
2022/08/30 07:37:57;;;;;;;;;;;;;;;28.54;40.68;100173.94;4383471;32;38846;-82
2022/08/30 07:40:25;;;;;;;;;;;;;;;28.46;41.32;100176.13;4384442;32;37966;-84
2022/08/30 07:42:52;;;;;;;;;;;;;;;28.39;41.74;100169.37;4385954;32;39421;-83
2022/08/30 07:45:20;;;;;;;;;;;;;;;28.39;41.58;100174.69;4383996;32;37307;-83
2022/08/30 07:47:47;;;;;;;;;;;;;;;28.37;42.74;100166.81;4386209;32;37973;-83
2022/08/30 07:50:14;;;;;;;;;;;;;;;28.52;40.08;100168.66;4385536;32;37867;-83
2022/08/30 07:52:41;;;;;;;;;;;;;;;28.44;40.76;100172.69;4386432;32;38770;-83
2022/08/30 07:55:09;;;;;;;;;;;;;;;28.46;40.95;100176.13;4384901;32;36234;-83
2022/08/30 07:57:36;;;;;;;;;;;;;;;28.62;39.82;100171.72;4380450;32;37771;-84
2022/08/30 08:00:04;;;;;;;;;;;;;;;28.43;40.62;100168.28;4380160;32;37934;-84
2022/08/30 08:02:39;;;;;;;;;;;;;;;28.62;41.09;100176.19;4380145;32;38380;-83
2022/08/30 08:05:08;;;;;;;;;;;;;;;28.62;40.00;100174.41;4381425;32;38228;-83
2022/08/30 08:07:39;;;;;;;;;;;;;;;28.70;39.14;100169.50;4378393;32;38089;-84
2022/08/30 08:10:08;;;;;;;;;;;;;;;28.63;39.90;100173.44;4390462;32;38122;-82
2022/08/30 08:12:35;;;;;;;;;;;;;;;28.79;40.38;100172.63;4394443;32;39389;-81
2022/08/30 08:15:02;;;;;;;;;;;;;;;28.83;40.25;100169.69;4393256;32;35513;-82
2022/08/30 08:17:35;;;;;;;;;;;;;;;28.84;39.52;100170.56;4380418;32;37954;-82
2022/08/30 08:20:02;;;;;;;;;;;;;;;28.85;39.60;100180.28;4381914;32;38729;-81
2022/08/30 08:22:30;;;;;;;;;;;;;;;28.61;39.71;100172.66;4373208;32;38555;-82
2022/08/30 08:24:57;;;;;;;;;;;;;;;28.80;41.55;100175.19;4373907;32;36300;-82
2022/08/30 08:27:24;;;;;;;;;;;;;;;28.67;40.12;100175.00;4382167;32;38271;-81
2022/08/30 08:29:52;;;;;;;;;;;;;;;28.81;39.94;100176.03;4384015;32;38063;-82
2022/08/30 08:32:19;;;;;;;;;;;;;;;28.94;39.95;100179.75;4383140;32;39865;-81
2022/08/30 08:34:46;;;;;;;;;;;;;;;28.85;38.90;100174.97;4381999;32;36992;-81
2022/08/30 08:37:13;;;;;;;;;;;;;;;28.49;37.17;100181.28;4370406;32;36671;-82
2022/08/30 08:39:41;;;;;;;;;;;;;;;28.70;37.97;100179.31;4380110;32;38156;-81
2022/08/30 08:42:14;;;;;;;;;;;;;;;29.14;39.57;100168.91;4383644;32;38433;-83
2022/08/30 08:44:57;;;;;;;;;;;;;;;29.32;39.42;100166.16;4385466;32;37444;-81
2022/08/30 08:47:26;;;;;;;;;;;;;;;29.26;39.73;100166.50;4382191;32;39032;-80
2022/08/30 08:49:55;;;;;;;;;;;;;;;29.63;36.95;100179.50;4378321;32;38730;-82
2022/08/30 08:55:17;;;;;;;;;;;;;;;30.09;37.80;100174.12;4388225;32;36092;-82
2022/08/30 08:57:45;;;;;;;;;;;;;;;30.01;37.55;100167.53;4370163;32;37049;-82
2022/08/30 09:00:14;;;;;;;;;;;;;;;30.52;35.41;100171.56;4382883;32;39039;-80
2022/08/30 09:02:45;;;;;;;;;;;;;;;30.66;34.98;100172.50;4382978;32;38748;-82
2022/08/30 09:05:17;;;;;;;;;;;;;;;30.50;36.82;100173.44;4383202;32;37778;-83
2022/08/30 09:07:49;;;;;;;;;;;;;;;30.42;33.83;100167.72;4384587;32;37834;-83
2022/08/30 09:10:16;;;;;;;;;;;;;;;30.68;34.01;100170.59;4383552;32;38912;-81
2022/08/30 09:12:56;;;;;;;;;;;;;;;31.08;35.39;100158.31;4379611;32;40145;-81
2022/08/30 09:15:28;;;;;;;;;;;;;;;31.41;32.96;100165.97;4383230;32;35980;-81
2022/08/30 09:18:01;;;;;;;;;;;;;;;31.12;34.65;100161.63;4231761;32;5086197;-82
2022/08/30 09:20:32;;;;;;;;;;;;;;;30.77;32.79;100154.03;4383081;32;37152;-85
2022/08/30 09:23:10;;;;;;;;;;;;;;;30.44;35.97;100152.47;4382904;32;38579;-82
2022/08/30 09:25:39;;;;;;;;;;;;;;;30.40;36.78;100156.28;4384835;32;36643;-82
2022/08/30 09:28:09;;;;;;;;;;;;;;;30.28;38.35;100155.22;4382794;32;39239;-80
2022/08/30 09:30:37;;;;;;;;;;;;;;;30.07;37.28;100149.31;4383138;32;37759;-81
2022/08/30 09:33:06;;;;;;;;;;;;;;;29.74;35.27;100151.31;4382830;32;39483;-81
2022/08/30 09:35:35;;;;;;;;;;;;;;;30.13;35.96;100140.94;4383235;32;36653;-82
2022/08/30 09:38:10;;;;;;;;;;;;;;;30.57;36.12;100145.41;4380663;32;37562;-82
2022/08/30 09:40:40;;;;;;;;;;;;;;;30.52;35.43;100142.16;4342275;32;38319;-81
2022/08/30 09:43:09;;;;;;;;;;;;;;;31.11;33.94;100141.16;4354396;32;39427;-83
2022/08/30 09:45:41;;;;;;;;;;;;;;;31.14;34.09;100140.97;4354137;32;37437;-84
2022/08/30 09:48:27;;;;;;;;;;;;;;;31.14;33.75;100130.28;4342165;32;39234;-82
2022/08/30 09:51:16;;;;;;;;;;;;;;;31.44;33.17;100133.66;4357758;32;37512;-84
2022/08/30 09:54:02;;;;;;;;;;;;;;;31.95;31.74;100136.50;4354064;32;39910;-83
2022/08/30 09:56:45;;;;;;;;;;;;;;;31.36;33.67;100133.28;4354474;32;36299;-85
2022/08/30 09:59:33;;;;;;;;;;;;;;;30.10;35.26;100127.78;4354900;32;37947;-86
2022/08/30 10:02:03;;;;;;;;;;;;;;;29.82;38.30;100122.37;4354744;32;38107;-82
2022/08/30 10:04:39;;;;;;;;;;;;;;;30.23;37.66;100121.72;4328410;32;39201;-85
2022/08/30 10:07:09;;;;;;;;;;;;;;;30.15;37.37;100115.97;4340497;32;36638;-87
2022/08/30 10:09:40;;;;;;;;;;;;;;;30.68;35.25;100117.16;4353814;32;39225;-83
2022/08/30 10:12:13;;;;;;;;;;;;;;;30.66;35.23;100113.72;4339291;32;37577;-86
2022/08/30 10:14:55;;;;;;;;;;;;;;;30.66;37.38;100113.72;4341191;32;38394;-84
2022/08/30 10:17:40;;;;;;;;;;;;;;;30.04;39.61;100113.94;4342597;32;36987;-82
2022/08/30 10:20:20;;;;;;;;;;;;;;;30.21;37.74;100112.94;4347941;32;37936;-86
2022/08/30 10:22:59;;;;;;;;;;;;;;;30.81;35.12;100107.44;4354424;32;39187;-88
2022/08/30 10:25:27;;;;;;;;;;;;;;;30.93;34.45;100106.66;4347690;32;39100;-83
2022/08/30 10:27:57;;;;;;;;;;;;;;;30.57;36.24;100108.00;4383966;32;37859;-81
2022/08/30 10:30:24;;;;;;;;;;;;;;;30.97;35.69;100102.81;4359890;32;37837;-84
2022/08/30 10:33:04;;;;;;;;;;;;;;;31.44;33.44;100112.25;4370273;32;37932;-84
2022/08/30 10:35:32;;;;;;;;;;;;;;;31.39;34.49;100101.00;4370461;32;38360;-86
2022/08/30 10:38:07;;;;;;;;;;;;;;;31.49;33.51;100101.22;4370696;32;37627;-83
2022/08/30 10:43:21;;;;;;;;;;;;;;;30.82;35.43;100098.44;4374998;32;38523;-82
2022/08/30 10:45:49;;;;;;;;;;;;;;;31.38;34.91;100085.91;4385031;32;39085;-85
2022/08/30 10:48:28;;;;;;;;;;;;;;;30.70;35.25;100085.88;4370720;32;37329;-83
2022/08/30 10:50:58;;;;;;;;;;;;;;;31.01;36.75;100087.44;4387816;32;37589;-81
2022/08/30 10:53:31;;;;;;;;;;;;;;;31.38;35.95;100085.91;4385465;32;38889;-83
2022/08/30 10:55:59;;;;;;;;;;;;;;;31.59;36.93;100082.75;4370311;32;39691;-89
2022/08/30 10:58:27;;;;;;;;;;;;;;;31.87;34.91;100071.88;4384468;32;37077;-84
2022/08/30 11:01:03;;;;;;;;;;;;;;;32.26;34.00;100072.78;4370043;32;37298;-85
2022/08/30 11:03:50;;;;;;;;;;;;;;;31.86;34.16;100069.31;4369767;32;38643;-82
2022/08/30 11:06:26;;;;;;;;;;;;;;;32.28;32.99;100060.13;4370185;32;38389;-82
2022/08/30 11:09:00;;;;;;;;;;;;;;;32.42;32.11;100062.69;4370310;32;36630;-83
2022/08/30 11:11:45;;;;;;;;;;;;;;;32.01;34.35;100067.44;4383343;32;37984;-82
2022/08/30 11:14:15;;;;;;;;;;;;;;;31.53;35.70;100072.47;4383378;32;39201;-82
2022/08/30 11:16:43;;;;;;;;;;;;;;;31.49;35.14;100063.78;4369636;32;38942;-82
2022/08/30 11:19:12;;;;;;;;;;;;;;;32.15;34.74;100064.63;4357379;32;37645;-84
2022/08/30 11:21:40;;;;;;;;;;;;;;;31.87;34.73;100053.13;4370116;32;38941;-82
2022/08/30 11:24:08;;;;;;;;;;;;;;;31.82;35.85;100052.59;4356586;32;38033;-81
2022/08/30 11:26:43;;;;;;;;;;;;;;;32.56;33.11;100055.50;4352070;32;38761;-81
2022/08/30 11:29:30;;;;;;;;;;;;;;;32.52;33.28;100051.34;4382836;32;37594;-81
2022/08/30 11:31:58;;;;;;;;;;;;;;;32.84;31.60;100044.50;4380885;32;39606;-82
2022/08/30 11:34:47;;;;;;;;;;;;;;;32.73;33.83;100040.87;4379220;32;38334;-81
2022/08/30 11:37:32;;;;;;;;;;;;;;;31.77;36.37;100038.66;4342900;32;38693;-81
2022/08/30 11:40:00;;;;;;;;;;;;;;;31.77;33.69;100038.66;4339478;32;37117;-81
2022/08/30 11:42:49;;;;;;;;;;;;;;;32.05;34.19;100031.44;4336305;32;38087;-80
2022/08/30 11:45:24;;;;;;;;;;;;;;;32.45;33.61;100042.00;4329983;33;37857;-82
2022/08/30 11:47:55;;;;;;;;;;;;;;;33.10;30.79;100031.84;4343806;32;39492;-81
2022/08/30 11:50:28;;;;;;;;;;;;;;;32.50;33.20;100024.63;4334487;32;36483;-82
2022/08/30 11:52:58;;;;;;;;;;;;;;;32.62;32.70;100022.91;4336195;32;39140;-85
2022/08/30 11:55:44;;;;;;;;;;;;;;;32.60;31.95;100022.16;4333860;32;37725;-83
2022/08/30 11:58:26;;;;;;;;;;;;;;;32.03;32.40;100028.84;4319750;32;37860;-84
2022/08/30 12:01:26;;;;;;;;;;;;;;;31.75;33.73;100019.19;4341268;32;37408;-85
2022/08/30 12:04:18;;;;;;;;;;;;;;;31.81;33.86;100008.03;4325693;32;39347;-86
2022/08/30 12:06:45;;;;;;;;;;;;;;;32.12;32.61;100000.56;4344974;32;38129;-82
2022/08/30 12:09:25;;;;;;;;;;;;;;;32.21;32.68;100005.28;4350983;32;39433;-83
2022/08/30 12:12:09;;;;;;;;;;;;;;;32.24;34.25;100007.72;4345758;32;38141;-85
2022/08/30 12:14:46;;;;;;;;;;;;;;;32.18;32.73;100002.81;4346861;32;37274;-84
2022/08/30 12:20:03;;;;;;;;;;;;;;;31.44;34.10;99997.22;4338404;32;37406;-83
2022/08/30 12:22:36;;;;;;;;;;;;;;;31.81;31.51;99991.97;4360843;32;36213;-82
2022/08/30 12:25:12;;;;;;;;;;;;;;;32.47;32.64;99984.66;4380814;32;38794;-82
2022/08/30 12:27:39;;;;;;;;;;;;;;;32.64;31.55;99988.78;4367886;32;39230;-84
2022/08/30 12:30:09;;;;;;;;;;;;;;;32.88;31.06;99984.28;4378461;32;38706;-82
2022/08/30 12:32:46;;;;;;;;;;;;;;;32.69;30.60;99989.31;4327719;32;1595546;-85
2022/08/30 12:35:18;;;;;;;;;;;;;;;32.87;31.16;99982.59;4362846;32;37431;-83
2022/08/30 12:37:54;;;;;;;;;;;;;;;33.17;30.59;99978.59;4369954;32;38778;-82
2022/08/30 12:40:22;;;;;;;;;;;;;;;32.69;31.20;99973.22;4361966;32;39204;-82
2022/08/30 12:42:50;;;;;;;;;;;;;;;32.96;30.48;99969.44;4373604;32;36531;-81
2022/08/30 12:45:19;;;;;;;;;;;;;;;32.93;31.27;99965.19;4381367;32;39079;-82
2022/08/30 12:47:47;;;;;;;;;;;;;;;32.49;33.48;99955.09;4367557;32;38317;-83
2022/08/30 12:50:16;;;;;;;;;;;;;;;32.70;31.29;99953.47;4382288;32;39248;-83
2022/08/30 12:52:47;;;;;;;;;;;;;;;32.69;31.28;99948.25;4380105;32;37070;-83
2022/08/30 12:55:18;;;;;;;;;;;;;;;32.61;31.75;99946.13;4368124;32;39129;-87
2022/08/30 12:57:55;;;;;;;;;;;;;;;32.89;31.21;99948.44;4381305;32;38930;-86
2022/08/30 13:00:31;;;;;;;;;;;;;;;32.21;32.15;99935.62;4353683;32;38002;-82
2022/08/30 13:03:01;;;;;;;;;;;;;;;32.50;31.32;99940.72;4353951;32;37629;-83
2022/08/30 13:05:31;;;;;;;;;;;;;;;32.16;34.09;99943.13;4356723;32;39089;-83